createdAt,value
2019-01-05T00:01:15.677Z,83.13
2019-01-05T00:03:45.662Z,83.16
2019-01-05T00:06:14.707Z,83.32
2019-01-05T00:08:44.575Z,83.23
2019-01-05T00:11:14.421Z,83.00
2019-01-05T00:13:46.419Z,82.94
2019-01-05T00:16:15.472Z,82.99
2019-01-05T00:18:50.296Z,83.09
2019-01-05T00:21:25.205Z,82.96
2019-01-05T00:23:59.838Z,82.89
2019-01-05T00:26:29.679Z,82.80
2019-01-05T00:29:00.564Z,82.70
2019-01-05T00:31:30.428Z,82.65
2019-01-05T00:33:59.475Z,82.60
2019-01-05T00:36:29.636Z,82.60
2019-01-05T00:39:00.615Z,82.50
2019-01-05T00:41:30.596Z,82.56
2019-01-05T00:44:00.462Z,82.66
2019-01-05T00:46:29.487Z,82.68
2019-01-05T00:49:01.405Z,82.63
2019-01-05T00:51:36.452Z,82.72
2019-01-05T00:54:05.546Z,82.64
2019-01-05T00:56:35.537Z,82.56
2019-01-05T01:01:54.551Z,82.48
2019-01-05T01:04:26.594Z,82.51
2019-01-05T01:06:56.457Z,82.49
2019-01-05T01:09:25.497Z,82.53
2019-01-05T01:11:54.602Z,82.56
2019-01-05T01:14:23.644Z,82.57
2019-01-05T01:16:55.610Z,82.56
2019-01-05T01:19:26.636Z,82.51
2019-01-05T01:21:57.562Z,82.52
2019-01-05T01:27:15.835Z,82.51
2019-01-05T01:29:44.884Z,82.46
2019-01-05T01:32:19.963Z,82.50
2019-01-05T01:34:54.619Z,82.49
2019-01-05T01:37:23.689Z,82.45
2019-01-05T01:39:53.546Z,82.42
2019-01-05T01:42:23.511Z,82.40
2019-01-05T01:44:52.604Z,82.49
2019-01-05T01:47:24.384Z,82.45
2019-01-05T01:49:59.083Z,82.57
2019-01-05T01:52:28.135Z,82.66
2019-01-05T01:55:00.979Z,82.71
2019-01-05T01:57:31.846Z,82.62
2019-01-05T02:00:01.990Z,82.70
2019-01-05T02:02:35.896Z,82.66
2019-01-05T02:05:06.884Z,82.56
2019-01-05T02:07:36.132Z,82.56
2019-01-05T02:10:08.027Z,82.58
2019-01-05T02:12:41.945Z,82.59
2019-01-05T02:15:12.087Z,82.61
2019-01-05T02:17:42.917Z,82.82
2019-01-05T02:20:23.237Z,82.90
2019-01-05T02:22:59.711Z,82.89
2019-01-05T02:25:34.493Z,83.11
2019-01-05T02:28:17.856Z,83.40
2019-01-05T02:30:48.074Z,83.37
2019-01-05T02:33:21.980Z,83.61
2019-01-05T02:36:00.412Z,83.49
2019-01-05T02:38:51.469Z,84.01
2019-01-05T02:41:28.028Z,84.20
2019-01-05T02:44:07.557Z,84.59
2019-01-05T02:46:48.494Z,85.00
2019-01-05T02:49:36.335Z,85.03
2019-01-05T02:52:06.213Z,85.30
2019-01-05T02:57:23.813Z,84.26
2019-01-05T03:02:49.010Z,84.13
2019-01-05T03:08:21.821Z,84.19
2019-01-05T03:11:02.277Z,84.43
2019-01-05T03:13:32.820Z,84.43
2019-01-05T03:16:06.590Z,84.32
2019-01-05T03:18:55.786Z,84.14
2019-01-05T03:21:37.485Z,84.14
2019-01-05T03:27:09.698Z,83.99
2019-01-05T03:29:44.362Z,83.96
2019-01-05T03:32:14.230Z,83.92
2019-01-05T03:34:53.218Z,83.82
2019-01-05T03:37:30.019Z,84.07
2019-01-05T03:42:52.933Z,84.07
2019-01-05T03:45:32.555Z,84.23
2019-01-05T03:50:53.174Z,84.27
2019-01-05T03:53:29.380Z,84.17
2019-01-05T03:56:08.700Z,84.30
2019-01-05T03:58:43.427Z,84.43
2019-01-05T04:01:17.102Z,84.39
2019-01-05T04:03:48.956Z,84.02
2019-01-05T04:06:25.673Z,84.19
2019-01-05T04:08:56.511Z,84.85
2019-01-05T04:11:42.242Z,84.88
2019-01-05T04:14:18.932Z,85.21
2019-01-05T04:17:10.317Z,85.23
2019-01-05T04:19:51.855Z,85.86
2019-01-05T04:22:28.823Z,86.32
2019-01-05T04:25:06.445Z,86.49
2019-01-05T04:27:48.216Z,86.70
2019-01-05T04:30:22.711Z,86.78
2019-01-05T04:35:48.509Z,86.90
2019-01-05T04:38:33.347Z,87.10
2019-01-05T04:43:51.031Z,86.14
2019-01-05T04:46:27.514Z,86.03
2019-01-05T04:49:02.309Z,86.11
2019-01-05T04:57:10.507Z,86.08
2019-01-05T04:59:44.513Z,86.02
2019-01-05T05:02:20.192Z,85.96
2019-01-05T05:04:50.069Z,86.27
2019-01-05T05:07:26.543Z,86.29
2019-01-05T05:10:06.482Z,86.59
2019-01-05T05:12:48.044Z,86.41
2019-01-05T05:23:37.755Z,86.74
2019-01-05T05:26:16.679Z,86.95
2019-01-05T05:28:53.191Z,87.05
2019-01-05T05:31:33.535Z,86.83
2019-01-05T05:40:18.941Z,87.09
2019-01-05T05:43:06.581Z,87.15
2019-01-05T05:45:53.325Z,87.16
2019-01-05T05:48:30.543Z,87.17
2019-01-05T05:51:10.182Z,87.01
2019-01-05T05:53:46.983Z,86.81
2019-01-05T05:56:22.864Z,86.54
2019-01-05T05:58:57.934Z,86.21
2019-01-05T06:01:35.282Z,85.86
2019-01-05T06:04:12.106Z,85.67
2019-01-05T06:06:46.743Z,85.39
2019-01-05T06:09:32.107Z,85.13
2019-01-05T06:12:19.772Z,84.87
2019-01-05T06:14:52.571Z,84.53
2019-01-05T06:17:32.043Z,84.32
2019-01-05T06:20:01.917Z,84.22
2019-01-05T06:22:37.491Z,84.19
2019-01-05T06:28:04.154Z,84.30
2019-01-05T06:30:39.130Z,84.35
2019-01-05T06:33:09.828Z,84.42
2019-01-05T06:35:52.442Z,84.40
2019-01-05T06:38:33.829Z,84.46
2019-01-05T06:41:16.128Z,84.26
2019-01-05T06:43:49.720Z,84.15
2019-01-05T06:46:37.669Z,83.95
2019-01-05T06:49:23.045Z,83.68
2019-01-05T06:52:08.727Z,83.47
2019-01-05T06:54:52.915Z,83.04
2019-01-05T06:57:29.296Z,82.77
2019-01-05T07:00:15.197Z,82.71
2019-01-05T07:02:56.123Z,82.81
2019-01-05T07:05:33.883Z,82.91
2019-01-05T07:10:56.440Z,83.17
2019-01-05T07:16:14.978Z,82.69
2019-01-05T07:21:35.853Z,82.44
2019-01-05T07:24:17.620Z,82.02
2019-01-05T07:27:01.324Z,82.05
2019-01-05T07:29:45.831Z,82.00
2019-01-05T07:35:17.755Z,82.15
2019-01-05T07:37:54.199Z,82.27
2019-01-05T07:40:35.717Z,82.35
2019-01-05T07:43:10.496Z,82.33
2019-01-05T07:45:46.845Z,82.38
2019-01-05T07:48:26.548Z,82.42
2019-01-05T07:51:11.318Z,82.38
2019-01-05T07:53:53.011Z,82.36
2019-01-05T07:59:13.332Z,82.46
2019-01-05T08:02:02.185Z,82.06
2019-01-05T08:04:41.489Z,81.91
2019-01-05T08:07:23.231Z,81.81
2019-01-05T08:10:09.324Z,82.00
2019-01-05T08:12:56.884Z,82.09
2019-01-05T08:15:37.538Z,82.16
2019-01-05T08:18:20.132Z,82.57
2019-01-05T08:21:06.532Z,82.55
2019-01-05T08:23:55.445Z,82.59
2019-01-05T08:26:31.893Z,82.80
2019-01-05T08:32:00.326Z,83.12
2019-01-05T08:34:44.889Z,82.98
2019-01-05T08:37:25.493Z,82.96
2019-01-05T08:43:02.490Z,82.42
2019-01-05T08:45:43.401Z,82.17
2019-01-05T08:48:20.017Z,81.81
2019-01-05T08:51:09.195Z,81.66
2019-01-05T08:53:46.974Z,81.64
2019-01-05T08:56:30.737Z,81.04
2019-01-05T08:59:13.985Z,80.96
2019-01-05T09:01:54.498Z,80.54
2019-01-05T09:07:14.665Z,79.62
2019-01-05T09:09:50.940Z,79.68
2019-01-05T09:12:34.202Z,79.83
2019-01-05T09:15:09.039Z,79.41
2019-01-05T09:17:44.844Z,79.25
2019-01-05T09:20:22.443Z,79.43
2019-01-05T09:23:00.257Z,79.31
2019-01-05T09:25:36.230Z,78.71
2019-01-05T09:28:17.812Z,78.05
2019-01-05T09:33:46.156Z,77.69
2019-01-05T09:36:23.414Z,76.75
2019-01-05T09:38:57.169Z,76.72
2019-01-05T09:41:40.624Z,76.54
2019-01-05T09:44:17.965Z,76.32
2019-01-05T09:46:51.883Z,75.76
2019-01-05T09:49:35.673Z,75.66
2019-01-05T09:52:16.419Z,75.69
2019-01-05T09:54:53.984Z,75.38
2019-01-05T09:57:28.881Z,75.52
2019-01-05T10:00:05.561Z,74.65
2019-01-05T10:02:36.460Z,74.75
2019-01-05T10:05:25.187Z,75.55
2019-01-05T10:07:59.955Z,75.48
2019-01-05T10:10:38.182Z,75.83
2019-01-05T10:13:19.641Z,75.80
2019-01-05T10:15:54.628Z,75.29
2019-01-05T10:18:28.545Z,75.01
2019-01-05T10:26:47.354Z,74.57
2019-01-05T10:29:25.009Z,74.19
2019-01-05T10:32:12.874Z,74.98
2019-01-05T10:34:44.444Z,75.01
2019-01-05T10:37:22.867Z,75.32
2019-01-05T10:42:41.168Z,75.14
2019-01-05T10:45:11.142Z,74.67
2019-01-05T10:47:46.123Z,74.51
2019-01-05T10:50:22.878Z,74.32
2019-01-05T10:53:03.382Z,74.57
2019-01-05T10:55:44.058Z,74.23
2019-01-05T10:58:26.455Z,73.96
2019-01-05T11:01:02.249Z,74.13
2019-01-05T11:03:39.166Z,73.82
2019-01-05T11:06:13.933Z,74.43
2019-01-05T11:08:43.010Z,74.61
2019-01-05T11:11:20.164Z,75.07
2019-01-05T11:14:06.938Z,75.12
2019-01-05T11:16:45.928Z,75.97
2019-01-05T11:19:16.088Z,78.05
2019-01-05T11:21:51.769Z,78.90
2019-01-05T11:24:24.311Z,78.50
2019-01-05T11:26:59.225Z,77.89
2019-01-05T11:29:49.745Z,77.30
2019-01-05T11:32:28.188Z,76.80
2019-01-05T11:35:05.781Z,75.24
2019-01-05T11:37:46.332Z,73.88
2019-01-05T11:43:15.265Z,72.97
2019-01-05T11:45:48.909Z,72.55
2019-01-05T11:48:26.721Z,72.12
2019-01-05T11:53:56.908Z,71.11
2019-01-05T11:56:37.270Z,70.83
2019-01-05T12:04:34.644Z,70.01
2019-01-05T12:07:15.272Z,68.69
2019-01-05T12:09:51.170Z,68.71
2019-01-05T12:12:26.079Z,68.25
2019-01-05T12:14:56.603Z,67.49
2019-01-05T12:17:34.920Z,67.64
2019-01-05T12:20:05.720Z,67.80
2019-01-05T12:22:43.400Z,68.19
2019-01-05T12:25:17.876Z,68.28
2019-01-05T12:27:48.446Z,70.41
2019-01-05T12:30:27.130Z,72.34
2019-01-05T12:33:15.788Z,73.07
2019-01-05T12:35:50.725Z,73.45
2019-01-05T12:38:25.791Z,73.77
2019-01-05T12:40:58.661Z,75.29
2019-01-05T12:46:20.525Z,75.08
2019-01-05T12:51:42.990Z,77.17
2019-01-05T12:54:19.720Z,78.05
2019-01-05T12:56:59.205Z,78.54
2019-01-05T12:59:46.454Z,78.73
2019-01-05T13:02:31.284Z,78.69
2019-01-05T13:10:53.155Z,78.68
2019-01-05T13:13:28.081Z,79.13
2019-01-05T13:16:12.676Z,79.25
2019-01-05T13:18:54.540Z,79.24
2019-01-05T13:21:35.053Z,79.54
2019-01-05T13:26:53.676Z,79.33
2019-01-05T13:32:17.001Z,78.51
2019-01-05T13:34:51.555Z,78.20
2019-01-05T13:40:13.054Z,77.95
2019-01-05T13:42:53.664Z,78.97
2019-01-05T13:45:40.499Z,79.40
2019-01-05T13:48:26.685Z,79.32
2019-01-05T13:51:07.252Z,79.09
2019-01-05T13:53:40.124Z,78.88
2019-01-05T13:56:10.092Z,78.52
2019-01-05T13:58:44.140Z,78.71
2019-01-05T14:01:18.828Z,78.49
2019-01-05T14:03:53.615Z,78.36
2019-01-05T14:06:24.467Z,77.61
2019-01-05T14:08:59.165Z,77.28
2019-01-05T14:11:28.211Z,77.31
2019-01-05T14:13:58.041Z,77.23
2019-01-05T14:16:32.775Z,77.14
2019-01-05T14:19:07.689Z,77.03
2019-01-05T14:21:42.764Z,76.82
2019-01-05T14:24:17.317Z,76.95
2019-01-05T14:26:47.318Z,76.96
2019-01-05T14:29:16.345Z,77.29
2019-01-05T14:31:48.666Z,77.15
2019-01-05T14:34:21.680Z,76.92
2019-01-05T14:36:51.541Z,76.70
2019-01-05T14:39:26.413Z,76.35
2019-01-05T14:42:00.477Z,75.81
2019-01-05T14:44:33.447Z,75.60
2019-01-05T14:47:02.565Z,75.55
2019-01-05T14:49:37.113Z,75.48
2019-01-05T14:52:08.147Z,75.61
2019-01-05T14:54:38.123Z,75.55
2019-01-05T14:57:07.173Z,75.62
2019-01-05T14:59:41.931Z,75.72
2019-01-05T15:02:13.909Z,75.92
2019-01-05T15:04:43.902Z,76.12
2019-01-05T15:07:16.958Z,76.01
2019-01-05T15:09:47.978Z,75.83
2019-01-05T15:12:22.063Z,75.96
2019-01-05T15:14:53.060Z,76.03
2019-01-05T15:17:27.755Z,76.05
2019-01-05T15:19:56.861Z,75.59
2019-01-05T15:22:26.768Z,75.51
2019-01-05T15:25:01.403Z,75.60
2019-01-05T15:27:36.098Z,75.77
2019-01-05T15:30:06.978Z,75.76
2019-01-05T15:32:37.858Z,75.88
2019-01-05T15:35:06.918Z,76.11
2019-01-05T15:37:36.003Z,77.19
2019-01-05T15:40:10.005Z,78.01
2019-01-05T15:42:39.995Z,78.35
2019-01-05T15:45:14.681Z,78.73
2019-01-05T15:47:43.759Z,78.95
2019-01-05T15:50:12.805Z,79.27
2019-01-05T15:52:43.678Z,79.48
2019-01-05T15:55:14.600Z,79.43
2019-01-05T15:57:43.659Z,79.57
2019-01-05T16:00:18.210Z,79.50
2019-01-05T16:02:47.246Z,79.46
2019-01-05T16:05:16.289Z,79.50
2019-01-05T16:07:48.196Z,79.24
2019-01-05T16:10:18.058Z,79.27
2019-01-05T16:15:36.063Z,79.03
2019-01-05T16:18:09.943Z,79.05
2019-01-05T16:20:44.638Z,79.41
2019-01-05T16:23:13.721Z,79.71
2019-01-05T16:25:44.695Z,80.29
2019-01-05T16:28:13.742Z,81.21
2019-01-05T16:30:48.392Z,81.59
2019-01-05T16:33:26.511Z,81.58
2019-01-05T16:35:55.581Z,81.47
2019-01-05T16:38:24.623Z,81.34
2019-01-05T16:40:54.601Z,81.26
2019-01-05T16:43:26.629Z,81.29
2019-01-05T16:45:57.600Z,81.30
2019-01-05T16:48:26.685Z,81.35
2019-01-05T16:50:55.787Z,81.05
2019-01-05T16:53:32.503Z,80.99
2019-01-05T16:56:07.070Z,80.87
2019-01-05T16:58:37.051Z,80.78
2019-01-05T17:01:06.101Z,80.62
2019-01-05T17:03:35.990Z,81.04
2019-01-05T17:06:05.881Z,81.53
2019-01-05T17:08:34.929Z,81.93
2019-01-05T17:11:04.031Z,82.23
2019-01-05T17:13:37.361Z,82.22
2019-01-05T17:16:06.526Z,82.50
2019-01-05T17:18:41.573Z,82.46
2019-01-05T17:21:12.563Z,82.16
2019-01-05T17:23:47.410Z,81.66
2019-01-05T17:26:21.412Z,81.35
2019-01-05T17:28:56.121Z,81.11
2019-01-05T17:34:10.247Z,80.93
2019-01-05T17:36:42.119Z,81.22
2019-01-05T17:39:16.966Z,81.64
2019-01-05T17:41:46.827Z,82.06
2019-01-05T17:44:15.908Z,82.41
2019-01-05T17:46:50.536Z,82.64
2019-01-05T17:49:20.485Z,82.99
2019-01-05T17:51:54.515Z,82.84
2019-01-05T17:54:29.377Z,82.55
2019-01-05T17:57:03.474Z,82.40
2019-01-05T18:02:17.933Z,82.20
2019-01-05T18:04:47.926Z,82.20
2019-01-05T18:07:20.973Z,82.03
2019-01-05T18:09:56.075Z,81.89
2019-01-05T18:12:27.975Z,81.57
2019-01-05T18:15:02.664Z,81.37
2019-01-05T18:17:32.548Z,81.34
2019-01-05T18:20:04.541Z,81.51
2019-01-05T18:22:33.598Z,81.53
2019-01-05T18:25:02.663Z,81.51
2019-01-05T18:27:31.698Z,81.43
2019-01-05T18:30:01.657Z,81.04
2019-01-05T18:32:30.706Z,80.53
2019-01-05T18:35:01.676Z,79.82
2019-01-05T18:37:31.744Z,79.25
2019-01-05T18:40:03.406Z,79.32
2019-01-05T18:42:35.363Z,79.21
2019-01-05T18:45:10.312Z,79.27
2019-01-05T18:47:39.398Z,79.29
2019-01-05T18:50:09.367Z,79.44
2019-01-05T18:52:43.281Z,79.22
2019-01-05T18:55:17.968Z,79.13
2019-01-05T18:57:47.048Z,79.39
2019-01-05T19:00:21.719Z,79.44
2019-01-05T19:05:48.392Z,79.33
2019-01-05T19:08:23.127Z,79.33
2019-01-05T19:10:57.722Z,79.12
2019-01-05T19:13:33.481Z,79.27
2019-01-05T19:16:02.533Z,79.24
2019-01-05T19:18:31.590Z,79.46
2019-01-05T19:21:02.639Z,79.55
2019-01-05T19:23:32.482Z,79.69
2019-01-05T19:26:02.505Z,79.79
2019-01-05T19:28:32.513Z,79.47
2019-01-05T19:33:50.049Z,79.31
2019-01-05T19:36:24.742Z,79.32
2019-01-05T19:38:58.566Z,79.33
2019-01-05T19:41:29.423Z,79.47
2019-01-05T19:43:58.514Z,79.51
2019-01-05T19:46:31.471Z,79.52
2019-01-05T19:49:06.047Z,79.84
2019-01-05T19:51:36.085Z,80.06
2019-01-05T19:54:05.132Z,80.08
2019-01-05T19:56:34.187Z,80.56
2019-01-05T19:59:08.973Z,80.61
2019-01-05T20:01:38.039Z,80.61
2019-01-05T20:04:11.910Z,80.68
2019-01-05T20:06:42.888Z,80.82
2019-01-05T20:09:11.932Z,80.65
2019-01-05T20:11:46.619Z,80.31
2019-01-05T20:14:21.237Z,80.40
2019-01-05T20:16:52.279Z,80.34
2019-01-05T20:19:26.802Z,80.57
2019-01-05T20:21:56.829Z,80.28
2019-01-05T20:24:27.685Z,79.63
2019-01-05T20:29:40.616Z,79.24
2019-01-05T20:32:15.271Z,79.13
2019-01-05T20:34:46.208Z,79.59
2019-01-05T20:37:21.018Z,80.84
2019-01-05T20:39:50.111Z,81.12
2019-01-05T20:42:23.040Z,81.44
2019-01-05T20:44:53.074Z,81.55
2019-01-05T20:47:27.156Z,81.50
2019-01-05T20:49:58.186Z,81.40
2019-01-05T20:52:28.134Z,81.70
2019-01-05T20:54:59.219Z,81.59
2019-01-05T20:57:33.133Z,81.38
2019-01-05T21:00:07.903Z,81.34
2019-01-05T21:02:42.814Z,81.22
2019-01-05T21:05:17.687Z,81.15
2019-01-05T21:07:50.756Z,81.02
2019-01-05T21:10:19.843Z,80.84
2019-01-05T21:12:49.752Z,80.64
2019-01-05T21:15:24.851Z,80.45
2019-01-05T21:17:52.856Z,80.24
2019-01-05T21:20:23.849Z,80.49
2019-01-05T21:22:58.668Z,80.86
2019-01-05T21:25:33.275Z,81.20
2019-01-05T21:28:03.197Z,81.87
2019-01-05T21:30:37.798Z,82.12
2019-01-05T21:36:05.083Z,82.16
2019-01-05T21:38:39.188Z,82.03
2019-01-05T21:41:13.763Z,81.96
2019-01-05T21:43:44.814Z,82.52
2019-01-05T21:46:13.923Z,83.24
2019-01-05T21:48:48.440Z,84.01
2019-01-05T21:51:19.977Z,84.66
2019-01-05T21:56:33.142Z,84.98
2019-01-05T21:59:04.079Z,84.66
2019-01-05T22:01:34.028Z,84.35
2019-01-05T22:04:03.081Z,84.15
2019-01-05T22:06:33.022Z,84.14
2019-01-05T22:09:02.056Z,84.15
2019-01-05T22:11:33.054Z,84.21
2019-01-05T22:14:06.152Z,84.28
2019-01-05T22:16:38.014Z,84.29
2019-01-05T22:19:10.957Z,84.17
2019-01-05T22:21:42.819Z,83.87
2019-01-05T22:24:13.859Z,83.58
2019-01-05T22:26:42.908Z,83.12
2019-01-05T22:29:17.947Z,81.75
2019-01-05T22:31:52.429Z,80.62
2019-01-05T22:34:42.609Z,80.25
2019-01-05T22:37:11.635Z,80.19
2019-01-05T22:39:46.326Z,80.24
2019-01-05T22:42:16.107Z,80.70
2019-01-05T22:44:48.214Z,80.58
2019-01-05T22:47:17.259Z,80.81
2019-01-05T22:49:46.302Z,80.92
2019-01-05T22:52:17.328Z,81.04
2019-01-05T22:54:51.855Z,81.47
2019-01-05T22:57:23.735Z,81.73
2019-01-05T22:59:52.782Z,81.86
2019-01-05T23:02:26.938Z,82.38
2019-01-05T23:04:55.988Z,82.94
2019-01-05T23:07:26.891Z,83.11
2019-01-05T23:09:59.876Z,83.22
2019-01-05T23:12:31.880Z,83.12
2019-01-05T23:15:00.953Z,83.09
2019-01-05T23:17:31.737Z,83.16
2019-01-05T23:20:06.351Z,83.10
2019-01-05T23:22:37.221Z,82.98
2019-01-05T23:25:07.106Z,83.47
2019-01-05T23:27:38.946Z,84.36
2019-01-05T23:30:09.847Z,84.45
2019-01-05T23:32:38.874Z,84.39
2019-01-05T23:35:08.840Z,84.16
2019-01-05T23:37:42.915Z,83.92
2019-01-05T23:40:17.529Z,83.62
2019-01-05T23:42:52.054Z,83.09
2019-01-05T23:45:27.469Z,82.62
2019-01-05T23:47:57.469Z,82.28
2019-01-05T23:50:28.463Z,82.00
2019-01-05T23:53:00.561Z,81.94
2019-01-05T23:55:29.598Z,82.20
2019-01-05T23:58:00.360Z,82.05
